Main page
METAR-TAF:

METAR-TAF

Airports :

Zakynthos International Airport

Zakynthos, Greece

latitude: 37-45N, longitude: 020-53E, elevation: 3 m

Current weather observation

The report was made 10 hours and 59 minutes ago, at 17:50 UTC
Wind 7 kt from the North/Northwest
Temperature 22°C
Humidity 43%
Pressure 1017 hPa
Visibility 10 km or more
Few clouds at a height of 2000 ft

METAR: LGZA 251750Z 33007KT 9999 FEW020 22/09 Q1017

Time: 07:49 (04:49 UTC)

Forecast

The report was made 2 hours and 49 minutes ago, at 02:00 UTC
Forecast valid from 26 at 03 UTC to 26 at 12 UTC
Wind 8 kt from the North/Northwest
Visibility 10 km or more
Few clouds at a height of 2000 ft

TAF: LGZA 260200Z 2603/2612 34008KT 9999 FEW020

Weather observations and forecasts of more than 4000 airports (METAR and TAF reports).

The available stations are represented by yellow and red dots on the map.

Hover mouse over dot to see the name of the station.

Then click to see weather observations and forecasts.

To change the map : click on the green buttons with a black cross to zoom in, on the green button with a dash to zoom out, or on the green arrows for adjacent maps.


METAR-TAF: